createdAt,value
2022-11-22T00:01:07.631Z,14.00
2022-11-22T00:03:35.393Z,15.13
2022-11-22T00:06:03.698Z,14.40
2022-11-22T00:08:33.562Z,14.73
2022-11-22T00:11:01.402Z,14.00
2022-11-22T00:13:29.406Z,13.88
2022-11-22T00:16:04.895Z,15.95
2022-11-22T00:18:32.777Z,15.95
2022-11-22T00:21:08.973Z,14.57
2022-11-22T00:23:36.842Z,15.20
2022-11-22T00:26:04.773Z,14.80
2022-11-22T00:28:32.846Z,15.10
2022-11-22T00:31:00.683Z,14.27
2022-11-22T00:33:28.593Z,14.75
2022-11-22T00:35:57.148Z,15.57
2022-11-22T00:38:25.227Z,15.48
2022-11-22T00:40:53.038Z,13.88
2022-11-22T00:43:21.224Z,15.32
2022-11-22T00:45:49.113Z,14.55
2022-11-22T00:48:16.981Z,14.25
2022-11-22T00:50:45.197Z,14.18
2022-11-22T00:53:13.072Z,13.10
2022-11-22T00:55:40.859Z,12.85
2022-11-22T00:58:09.061Z,13.85
2022-11-22T01:00:37.017Z,14.40
2022-11-22T01:03:04.989Z,14.63
2022-11-22T01:05:33.131Z,13.88
2022-11-22T01:08:01.017Z,13.75
2022-11-22T01:10:29.095Z,14.43
2022-11-22T01:12:58.769Z,14.70
2022-11-22T01:15:26.676Z,15.25
2022-11-22T01:17:54.509Z,16.10
2022-11-22T01:20:23.287Z,15.35
2022-11-22T01:22:51.220Z,14.45
2022-11-22T01:25:19.041Z,14.45
2022-11-22T01:27:47.999Z,15.43
2022-11-22T01:30:16.223Z,14.50
2022-11-22T01:32:45.443Z,14.40
2022-11-22T01:35:13.491Z,15.80
2022-11-22T01:37:42.066Z,14.95
2022-11-22T01:40:11.748Z,14.10
2022-11-22T01:42:54.441Z,15.15
2022-11-22T01:45:31.622Z,14.77
2022-11-22T01:48:18.662Z,15.02
2022-11-22T01:50:50.395Z,15.10
2022-11-22T01:53:25.622Z,15.43
2022-11-22T01:55:55.932Z,15.95
2022-11-22T01:58:24.967Z,13.18
2022-11-22T02:00:54.708Z,13.68
2022-11-22T02:03:23.757Z,14.15
2022-11-22T02:05:53.485Z,14.65
2022-11-22T02:08:40.071Z,14.45
2022-11-22T02:11:09.846Z,13.82
2022-11-22T02:13:43.916Z,15.10
2022-11-22T02:16:12.842Z,14.48
2022-11-22T02:18:41.047Z,15.57
2022-11-22T02:21:09.621Z,13.77
2022-11-22T02:24:03.856Z,14.48
2022-11-22T02:26:32.508Z,14.50
2022-11-22T02:29:06.711Z,13.93
2022-11-22T02:31:43.313Z,13.48
2022-11-22T02:34:12.944Z,14.07
2022-11-22T02:36:50.243Z,15.15
2022-11-22T02:39:26.816Z,14.57
2022-11-22T02:41:57.355Z,15.40
2022-11-22T02:44:25.972Z,14.25
2022-11-22T02:46:55.816Z,15.95
2022-11-22T02:49:25.673Z,16.25
2022-11-22T02:51:54.033Z,14.98
2022-11-22T02:54:22.061Z,15.82
2022-11-22T02:56:50.148Z,14.98
2022-11-22T02:59:18.258Z,15.70
2022-11-22T03:01:48.020Z,15.65
2022-11-22T03:04:25.331Z,16.17
2022-11-22T03:06:57.683Z,14.75
2022-11-22T03:09:27.841Z,15.43
2022-11-22T03:11:56.851Z,15.63
2022-11-22T03:14:24.921Z,16.40
2022-11-22T03:16:53.435Z,15.25
2022-11-22T03:19:21.381Z,13.57
2022-11-22T03:21:49.481Z,14.70
2022-11-22T03:24:19.532Z,14.50
2022-11-22T03:26:49.741Z,13.10
2022-11-22T03:29:18.170Z,13.55
2022-11-22T03:31:46.119Z,14.43
2022-11-22T03:34:15.784Z,13.95
2022-11-22T03:36:44.265Z,13.57
2022-11-22T03:39:12.705Z,14.77
2022-11-22T03:41:40.667Z,12.93
2022-11-22T03:44:08.750Z,13.63
2022-11-22T03:46:36.824Z,14.18
2022-11-22T03:49:04.754Z,16.35
2022-11-22T03:51:32.593Z,15.57
2022-11-22T03:54:00.589Z,15.93
2022-11-22T03:56:28.565Z,15.00
2022-11-22T03:58:56.886Z,14.27
2022-11-22T04:01:25.107Z,16.20
2022-11-22T04:03:53.039Z,15.50
2022-11-22T04:06:20.868Z,14.80
2022-11-22T04:08:48.907Z,14.15
2022-11-22T04:11:16.894Z,14.27
2022-11-22T04:14:03.628Z,15.57
2022-11-22T04:16:31.627Z,17.10
2022-11-22T04:18:59.500Z,16.02
2022-11-22T04:21:36.608Z,14.80
2022-11-22T04:24:31.594Z,17.25
2022-11-22T04:26:59.836Z,15.27
2022-11-22T04:29:28.559Z,17.00
2022-11-22T04:32:15.571Z,15.05
2022-11-22T04:34:43.936Z,17.17
2022-11-22T04:37:11.717Z,15.75
2022-11-22T04:39:39.660Z,15.88
2022-11-22T04:42:26.502Z,15.30
2022-11-22T04:44:54.452Z,15.40
2022-11-22T04:47:42.916Z,16.45
2022-11-22T04:50:32.947Z,17.08
2022-11-22T04:53:00.932Z,17.38
2022-11-22T04:55:28.737Z,16.67
2022-11-22T04:57:59.990Z,15.40
2022-11-22T05:00:32.570Z,17.35
2022-11-22T05:03:00.813Z,18.20
2022-11-22T05:05:29.201Z,16.15
2022-11-22T05:08:00.409Z,16.40
2022-11-22T05:10:28.577Z,16.35
2022-11-22T05:12:57.327Z,17.38
2022-11-22T05:15:25.519Z,16.83
2022-11-22T05:17:53.443Z,15.45
2022-11-22T05:20:21.447Z,16.02
2022-11-22T05:23:08.233Z,15.98
2022-11-22T05:25:36.203Z,15.55
2022-11-22T05:28:04.662Z,18.23
2022-11-22T05:30:32.597Z,16.48
2022-11-22T05:33:00.463Z,16.73
2022-11-22T05:35:28.403Z,18.58
2022-11-22T05:38:00.179Z,18.27
2022-11-22T05:40:28.127Z,17.95
2022-11-22T05:42:57.502Z,18.00
2022-11-22T05:45:25.672Z,17.05
2022-11-22T05:47:53.568Z,18.80
2022-11-22T05:50:24.182Z,17.77
2022-11-22T05:52:58.442Z,16.05
2022-11-22T05:55:26.304Z,14.23
2022-11-22T05:57:54.156Z,15.65
2022-11-22T06:00:22.408Z,15.52
2022-11-22T06:02:50.194Z,17.25
2022-11-22T06:05:18.262Z,15.95
2022-11-22T06:07:46.734Z,17.48
2022-11-22T06:10:14.714Z,17.40
2022-11-22T06:12:43.358Z,15.93
2022-11-22T06:15:11.753Z,17.00
2022-11-22T06:17:39.973Z,17.95
2022-11-22T06:20:09.000Z,18.00
2022-11-22T06:22:36.971Z,17.40
2022-11-22T06:25:06.351Z,17.05
2022-11-22T06:27:34.393Z,16.92
2022-11-22T06:30:02.277Z,16.42
2022-11-22T06:32:34.585Z,15.30
2022-11-22T06:35:03.636Z,13.60
2022-11-22T06:37:31.668Z,17.25
2022-11-22T06:39:59.577Z,16.33
2022-11-22T06:42:27.790Z,14.50
2022-11-22T06:44:55.727Z,15.27
2022-11-22T06:47:23.587Z,15.10
2022-11-22T06:49:51.830Z,14.38
2022-11-22T06:52:19.665Z,14.90
2022-11-22T06:54:47.543Z,13.55
2022-11-22T06:57:16.414Z,16.80
2022-11-22T06:59:44.233Z,17.23
2022-11-22T07:02:12.829Z,18.50
2022-11-22T07:05:02.301Z,15.77
2022-11-22T07:07:28.741Z,15.95
2022-11-22T07:09:57.215Z,17.80
2022-11-22T07:12:24.953Z,16.48
2022-11-22T07:14:52.786Z,16.30
2022-11-22T07:17:20.951Z,16.38
2022-11-22T07:19:48.978Z,15.65
2022-11-22T07:22:16.776Z,16.08
2022-11-22T07:24:44.780Z,17.63
2022-11-22T07:27:12.565Z,17.15
2022-11-22T07:29:40.408Z,18.40
2022-11-22T07:32:08.415Z,17.98
2022-11-22T07:34:36.172Z,15.07
2022-11-22T07:37:08.876Z,17.30
2022-11-22T07:39:37.527Z,15.98
2022-11-22T07:42:05.502Z,17.30
2022-11-22T07:44:33.383Z,17.08
2022-11-22T07:47:01.641Z,16.73
2022-11-22T07:49:29.818Z,17.08
2022-11-22T07:51:59.563Z,17.85
2022-11-22T07:54:27.987Z,17.45
2022-11-22T07:56:55.829Z,15.48
2022-11-22T07:59:23.747Z,15.95
2022-11-22T08:01:52.089Z,14.32
2022-11-22T08:04:20.112Z,13.98
2022-11-22T08:06:48.034Z,14.57
2022-11-22T08:09:16.245Z,14.55
2022-11-22T08:11:44.085Z,15.25
2022-11-22T08:14:12.383Z,15.10
2022-11-22T08:16:40.526Z,14.63
2022-11-22T08:19:09.026Z,13.43
2022-11-22T08:21:40.060Z,15.23
2022-11-22T08:24:08.189Z,13.27
2022-11-22T08:26:36.570Z,13.45
2022-11-22T08:29:12.580Z,14.30
2022-11-22T08:31:42.194Z,14.48
2022-11-22T08:34:10.092Z,13.75
2022-11-22T08:36:38.829Z,13.68
2022-11-22T08:39:07.133Z,13.90
2022-11-22T08:41:34.956Z,13.48
2022-11-22T08:44:02.874Z,15.20
2022-11-22T08:46:31.062Z,13.63
2022-11-22T08:48:58.920Z,14.52
2022-11-22T08:51:26.764Z,14.20
2022-11-22T08:53:55.030Z,13.82
2022-11-22T08:56:23.407Z,14.77
2022-11-22T08:58:51.511Z,14.07
2022-11-22T09:01:21.528Z,15.13
2022-11-22T09:03:50.315Z,17.13
2022-11-22T09:09:35.673Z,18.27
2022-11-22T09:11:56.760Z,18.77
2022-11-22T09:14:25.199Z,18.50
2022-11-22T09:16:53.042Z,19.35
2022-11-22T09:19:21.004Z,18.70
2022-11-22T09:21:49.560Z,19.83
2022-11-22T09:24:17.548Z,19.95
2022-11-22T09:26:45.561Z,20.20
2022-11-22T09:29:15.803Z,19.52
2022-11-22T09:31:43.868Z,17.70
2022-11-22T09:34:11.784Z,17.35
2022-11-22T09:36:40.047Z,18.48
2022-11-22T09:39:10.114Z,16.85
2022-11-22T09:42:12.099Z,16.50
2022-11-22T09:44:45.403Z,18.73
2022-11-22T09:48:02.114Z,17.13
2022-11-22T09:50:36.145Z,15.70
2022-11-22T09:53:17.232Z,19.25
2022-11-22T09:55:50.164Z,18.05
2022-11-22T09:58:41.686Z,18.80
2022-11-22T10:01:44.028Z,17.60
2022-11-22T10:04:21.600Z,17.75
2022-11-22T10:07:22.717Z,16.00
2022-11-22T10:10:04.113Z,17.40
2022-11-22T10:12:59.067Z,16.88
2022-11-22T10:15:54.366Z,17.77
2022-11-22T10:18:38.672Z,18.52
2022-11-22T10:21:18.074Z,16.60
2022-11-22T10:23:47.546Z,18.25
2022-11-22T10:26:29.634Z,17.75
2022-11-22T10:29:37.228Z,17.55
2022-11-22T10:32:28.805Z,16.27
2022-11-22T10:35:14.847Z,10.40
2022-11-22T10:38:32.612Z,15.00
2022-11-22T10:41:28.639Z,15.60
2022-11-22T10:44:21.030Z,15.55
2022-11-22T10:47:09.639Z,16.33
2022-11-22T10:49:40.356Z,14.77
2022-11-22T10:52:32.629Z,15.07
2022-11-22T10:55:22.366Z,15.60
2022-11-22T10:58:08.429Z,16.48
2022-11-22T11:00:43.976Z,22.20
2022-11-22T11:03:44.040Z,26.35
2022-11-22T11:06:29.570Z,17.25
2022-11-22T11:12:19.795Z,17.05
2022-11-22T11:14:53.612Z,17.38
2022-11-22T11:17:30.057Z,15.60
2022-11-22T11:20:03.600Z,15.98
2022-11-22T11:23:12.426Z,15.85
2022-11-22T11:25:40.773Z,15.80
2022-11-22T11:28:30.170Z,16.15
2022-11-22T11:31:19.088Z,15.82
2022-11-22T11:33:47.612Z,16.60
2022-11-22T11:36:24.062Z,18.35
2022-11-22T11:38:57.136Z,18.08
2022-11-22T11:41:38.834Z,17.70
2022-11-22T11:44:29.298Z,18.52
2022-11-22T11:46:58.696Z,18.35
2022-11-22T11:49:31.654Z,18.88
2022-11-22T11:52:19.701Z,19.52
2022-11-22T11:54:54.320Z,18.50
2022-11-22T11:57:34.104Z,18.80
2022-11-22T12:00:07.092Z,19.60
2022-11-22T12:02:51.002Z,19.60
2022-11-22T12:05:19.547Z,19.73
2022-11-22T12:07:48.313Z,19.83
2022-11-22T12:10:47.254Z,19.38
2022-11-22T12:13:21.572Z,18.45
2022-11-22T12:16:03.385Z,18.25
2022-11-22T12:18:44.726Z,18.20
2022-11-22T12:21:28.964Z,18.52
2022-11-22T12:27:10.661Z,18.15
2022-11-22T12:32:16.250Z,16.02
2022-11-22T12:35:18.781Z,20.30
2022-11-22T12:38:25.137Z,19.73
2022-11-22T12:40:57.459Z,20.00
2022-11-22T12:43:36.417Z,20.35
2022-11-22T12:46:18.925Z,21.80
2022-11-22T12:49:26.837Z,20.85
2022-11-22T12:52:10.786Z,20.23
2022-11-22T12:55:15.345Z,21.52
2022-11-22T12:58:25.832Z,20.35
2022-11-22T13:01:16.333Z,18.83
2022-11-22T13:04:11.538Z,18.83
2022-11-22T13:06:45.264Z,19.83
2022-11-22T13:09:20.808Z,22.63
2022-11-22T13:11:58.207Z,20.80
2022-11-22T13:14:44.819Z,20.30
2022-11-22T13:17:17.072Z,20.30
2022-11-22T13:20:23.267Z,18.65
2022-11-22T13:23:11.391Z,18.40
2022-11-22T13:25:45.597Z,20.20
2022-11-22T13:28:20.567Z,19.85
2022-11-22T13:31:10.248Z,19.88
2022-11-22T13:33:57.025Z,19.08
2022-11-22T13:36:31.875Z,18.95
2022-11-22T13:39:23.736Z,19.17
2022-11-22T13:41:57.784Z,19.65
2022-11-22T13:44:49.202Z,21.52
2022-11-22T13:47:17.598Z,20.20
2022-11-22T13:49:49.203Z,20.73
2022-11-22T13:54:48.926Z,16.17
2022-11-22T14:00:15.197Z,13.30
2022-11-22T14:03:43.676Z,12.45
2022-11-22T14:06:26.113Z,12.35
2022-11-22T14:09:38.355Z,16.35
2022-11-22T14:12:29.517Z,16.90
2022-11-22T14:15:37.859Z,14.60
2022-11-22T14:18:46.133Z,11.15
2022-11-22T14:21:48.713Z,12.45
2022-11-22T14:24:43.778Z,12.70
2022-11-22T14:27:20.385Z,12.57
2022-11-22T14:30:23.539Z,15.55
2022-11-22T14:33:13.749Z,16.13
2022-11-22T14:36:07.524Z,16.10
2022-11-22T14:38:45.595Z,15.43
2022-11-22T14:41:28.941Z,15.65
2022-11-22T14:44:20.254Z,12.52
2022-11-22T14:47:04.655Z,13.48
2022-11-22T14:49:47.160Z,13.20
2022-11-22T14:55:17.441Z,15.27
2022-11-22T14:57:51.885Z,12.95
2022-11-22T15:00:22.230Z,14.10
2022-11-22T15:03:20.655Z,14.00
2022-11-22T15:09:21.960Z,12.48
2022-11-22T15:09:50.643Z,13.77
2022-11-22T15:12:21.601Z,15.40
2022-11-22T15:59:44.885Z,10.68
2022-11-22T16:02:32.415Z,14.57
2022-11-22T16:06:06.485Z,11.48
2022-11-22T16:07:57.047Z,15.15
2022-11-22T16:10:37.912Z,16.35
2022-11-22T16:13:23.101Z,14.77
2022-11-22T16:16:13.782Z,15.63
2022-11-22T16:18:43.792Z,15.60
2022-11-22T16:21:11.638Z,14.52
2022-11-22T16:23:45.489Z,14.45
2022-11-22T16:26:21.959Z,13.20
2022-11-22T16:28:54.923Z,15.77
2022-11-22T16:31:27.674Z,17.40
2022-11-22T16:33:57.067Z,18.08
2022-11-22T16:36:29.668Z,18.63
2022-11-22T16:38:58.631Z,16.05
2022-11-22T16:41:29.502Z,15.00
2022-11-22T16:44:21.298Z,14.97
2022-11-22T16:46:49.231Z,16.30
2022-11-22T16:49:20.462Z,15.13
2022-11-22T16:51:50.349Z,17.35
2022-11-22T16:54:20.775Z,12.52
2022-11-22T16:56:48.979Z,16.33
2022-11-22T16:59:17.043Z,17.75
2022-11-22T17:01:45.361Z,16.42
2022-11-22T17:04:26.560Z,17.08
2022-11-22T17:06:54.811Z,13.95
2022-11-22T17:09:22.768Z,11.13
2022-11-22T17:11:51.182Z,16.10
2022-11-22T17:14:19.632Z,12.43
2022-11-22T17:16:47.869Z,13.70
2022-11-22T17:22:07.245Z,17.25
2022-11-22T17:24:36.016Z,17.83
2022-11-22T17:27:04.050Z,17.70
2022-11-22T17:29:49.912Z,17.17
2022-11-22T17:32:19.957Z,19.20
2022-11-22T17:34:47.933Z,16.85
2022-11-22T17:37:15.851Z,17.80
2022-11-22T17:39:43.837Z,15.05
2022-11-22T17:42:12.208Z,18.77
2022-11-22T17:44:40.077Z,19.55
2022-11-22T17:47:08.982Z,19.67
2022-11-22T17:49:37.357Z,18.45
2022-11-22T17:52:06.264Z,15.02
2022-11-22T17:54:34.550Z,17.60
2022-11-22T17:57:02.641Z,19.50
2022-11-22T17:59:30.965Z,18.83
2022-11-22T18:01:59.209Z,17.52
2022-11-22T18:04:27.363Z,18.58
2022-11-22T18:06:57.562Z,18.15
2022-11-22T18:09:26.093Z,17.33
2022-11-22T18:11:55.897Z,18.50
2022-11-22T18:14:23.915Z,18.23
2022-11-22T18:16:51.975Z,17.95
2022-11-22T18:19:20.878Z,18.98
2022-11-22T18:21:49.379Z,17.75
2022-11-22T18:24:17.494Z,17.98
2022-11-22T18:26:45.595Z,18.17
2022-11-22T18:32:02.940Z,17.40
2022-11-22T18:34:31.673Z,15.68
2022-11-22T18:37:03.058Z,17.88
2022-11-22T18:39:41.803Z,16.73
2022-11-22T18:42:15.283Z,17.20
2022-11-22T18:44:43.981Z,17.30
2022-11-22T18:47:12.011Z,16.45
2022-11-22T18:49:40.242Z,15.10
2022-11-22T18:52:10.700Z,16.58
2022-11-22T18:54:41.369Z,16.73
2022-11-22T18:57:10.053Z,20.02
2022-11-22T18:59:38.064Z,17.80
2022-11-22T19:02:06.766Z,16.55
2022-11-22T19:04:35.131Z,15.63
2022-11-22T19:07:03.193Z,16.13
2022-11-22T19:09:32.786Z,16.02
2022-11-22T19:12:01.200Z,16.20
2022-11-22T19:14:29.869Z,15.57
2022-11-22T19:16:58.043Z,16.55
2022-11-22T19:19:26.644Z,17.65
2022-11-22T19:21:54.680Z,15.48
2022-11-22T19:24:22.703Z,16.10
2022-11-22T19:26:51.169Z,15.80
2022-11-22T19:29:19.382Z,15.43
2022-11-22T19:31:48.299Z,15.27
2022-11-22T19:34:16.701Z,14.65
2022-11-22T19:36:44.961Z,16.92
2022-11-22T19:39:16.609Z,14.45
2022-11-22T19:41:45.505Z,16.60
2022-11-22T19:44:14.623Z,16.08
2022-11-22T19:46:42.744Z,21.95
2022-11-22T19:49:11.112Z,19.00
2022-11-22T19:51:39.250Z,17.00
2022-11-22T19:54:07.612Z,18.38
2022-11-22T19:56:38.665Z,20.85
2022-11-22T19:59:10.766Z,18.90
2022-11-22T20:01:41.762Z,20.92
2022-11-22T20:04:13.328Z,19.25
2022-11-22T20:06:44.856Z,18.92
2022-11-22T20:09:16.359Z,19.00
2022-11-22T20:11:45.638Z,19.88
2022-11-22T20:14:13.524Z,19.33
2022-11-22T20:16:42.120Z,17.10
2022-11-22T20:19:12.582Z,18.35
2022-11-22T20:21:41.132Z,17.33
2022-11-22T20:24:09.721Z,16.42
2022-11-22T20:26:37.890Z,17.95
2022-11-22T20:29:08.589Z,16.25
2022-11-22T20:31:38.948Z,16.30
2022-11-22T20:34:10.215Z,17.20
2022-11-22T20:36:41.426Z,13.73
2022-11-22T20:39:10.890Z,15.13
2022-11-22T20:41:40.466Z,17.52
2022-11-22T20:44:14.825Z,14.07
2022-11-22T20:46:45.357Z,14.07
2022-11-22T20:49:18.075Z,16.63
2022-11-22T20:51:46.330Z,15.65
2022-11-22T20:54:14.543Z,16.52
2022-11-22T20:56:43.051Z,16.75
2022-11-22T20:59:14.303Z,16.05
2022-11-22T21:01:45.405Z,15.10
2022-11-22T21:04:19.144Z,16.33
2022-11-22T21:06:47.481Z,15.90
2022-11-22T21:09:16.866Z,14.80
2022-11-22T21:11:45.652Z,11.85
2022-11-22T21:14:13.874Z,15.90
2022-11-22T21:16:45.264Z,15.15
2022-11-22T21:19:16.423Z,14.85
2022-11-22T21:21:46.246Z,15.35
2022-11-22T21:24:14.366Z,13.10
2022-11-22T21:26:42.711Z,15.10
2022-11-22T21:29:16.533Z,15.63
2022-11-22T21:31:45.259Z,16.25
2022-11-22T21:34:13.632Z,14.95
2022-11-22T21:36:43.491Z,14.90
2022-11-22T21:39:13.737Z,14.05
2022-11-22T21:41:42.583Z,14.98
2022-11-22T21:44:11.228Z,13.73
2022-11-22T21:46:39.843Z,14.85
2022-11-22T21:49:08.186Z,12.02
2022-11-22T21:51:37.239Z,15.70
2022-11-22T21:54:05.897Z,15.13
2022-11-22T21:56:35.583Z,13.48
2022-11-22T21:59:04.019Z,13.73
2022-11-22T22:01:32.938Z,14.48
2022-11-22T22:04:01.251Z,15.15
2022-11-22T22:06:29.664Z,13.73
2022-11-22T22:08:57.942Z,15.00
2022-11-22T22:11:26.212Z,13.32
2022-11-22T22:13:55.753Z,14.80
2022-11-22T22:16:26.071Z,14.75
2022-11-22T22:18:54.508Z,14.07
2022-11-22T22:21:22.573Z,12.88
2022-11-22T22:23:50.709Z,12.38
2022-11-22T22:26:18.773Z,14.43
2022-11-22T22:28:47.202Z,13.60
2022-11-22T22:31:22.730Z,12.82
2022-11-22T22:33:57.068Z,13.65
2022-11-22T22:36:27.271Z,14.35
2022-11-22T22:38:55.831Z,13.45
2022-11-22T22:41:23.873Z,15.50
2022-11-22T22:43:51.931Z,13.48
2022-11-22T22:46:22.928Z,14.93
2022-11-22T22:48:52.164Z,13.98
2022-11-22T22:51:32.281Z,13.32
2022-11-22T22:54:01.579Z,14.23
2022-11-22T22:56:32.488Z,14.27
2022-11-22T22:59:01.187Z,14.55
2022-11-22T23:01:31.350Z,13.00
2022-11-22T23:04:02.072Z,14.13
2022-11-22T23:06:32.840Z,13.73
2022-11-22T23:09:01.585Z,12.47
2022-11-22T23:11:51.288Z,13.63
2022-11-22T23:14:24.253Z,13.13
2022-11-22T23:16:57.314Z,13.20
2022-11-22T23:19:27.383Z,13.07
2022-11-22T23:21:55.874Z,12.30
2022-11-22T23:24:24.059Z,12.80
2022-11-22T23:26:52.195Z,12.50
2022-11-22T23:29:20.439Z,8.45
2022-11-22T23:31:48.341Z,11.13
2022-11-22T23:34:16.359Z,12.20
2022-11-22T23:36:44.864Z,11.07
2022-11-22T23:39:12.777Z,11.60
2022-11-22T23:41:41.226Z,12.18
2022-11-22T23:44:09.533Z,11.07
2022-11-22T23:46:37.623Z,11.30
2022-11-22T23:49:06.314Z,10.27
2022-11-22T23:51:36.829Z,11.45
2022-11-22T23:54:06.350Z,8.52
2022-11-22T23:56:36.508Z,9.93
2022-11-22T23:59:05.750Z,10.90
